Marchaser — V2OO6 — position and weather

sailwx.info

Track history (hours):
 
Tides and Currents Weather Stations Pressure Air Temp Water Temp Dewpoint Dewpoint Depression Visibility Wind Speed Wind Dir Waves Ship Positions

Marchaser

Last reported at 2014-Oct-22 06:15 UTC. Time now 2014-Oct-23 10:16 UTC.
Position N 25°32' W 080°02'.

Length 134 m; draft 7.5 m.

Type: Cargo ship. MMSI: 304617000.

Date/timePositionNaut miles runAvg speedWind from/ knotsBaromVisibWave heightAir tempDewpointWater temp
2014-Oct-22 06:15N 25°32' W 080°02'913.6
2014-Oct-22 05:33N 25°41' W 080°01'1414.3
2014-Oct-22 04:33N 25°55' W 080°01'1210.9
2014-Oct-22 03:26N 26°07' W 080°04'0 0.1
2014-Oct-22 02:26N 26°08' W 080°04'0 0.0
2014-Oct-22 01:29N 26°08' W 080°04'0 0.1
2014-Oct-22 00:29N 26°08' W 080°04'0 0.1
2014-Oct-21 23:29N 26°08' W 080°04'0 0.0
2014-Oct-21 22:29N 26°08' W 080°04'0 0.0
2014-Oct-21 21:32N 26°08' W 080°04'0 0.0
2014-Oct-21 20:32N 26°08' W 080°04'0 0.0
2014-Oct-21 19:32N 26°08' W 080°04'0 0.1
2014-Oct-21 18:32N 26°08' W 080°04'0 0.1
2014-Oct-21 17:32N 26°07' W 080°04'0 0.0
2014-Oct-21 16:32N 26°08' W 080°04'0 0.1
2014-Oct-21 15:23N 26°07' W 080°04'0 0.0
2014-Oct-21 14:23N 26°07' W 080°04'0 0.0
2014-Oct-21 13:26N 26°07' W 080°04'0 0.0
2014-Oct-21 12:26N 26°07' W 080°04'0 0.0
2014-Oct-21 11:29N 26°07' W 080°04'0 0.1
2014-Oct-21 10:29N 26°07' W 080°04'0 0.1
2014-Oct-21 09:29N 26°07' W 080°04'0 0.1
2014-Oct-21 08:32N 26°07' W 080°04'0 0.0
2014-Oct-21 07:32N 26°07' W 080°04'0 0.1
2014-Oct-21 06:32N 26°08' W 080°04'0 0.0
2014-Oct-21 05:32N 26°08' W 080°04'0 0.0
2014-Oct-21 04:32N 26°08' W 080°04'0 0.0
2014-Oct-21 03:32N 26°08' W 080°04'1 1.0
2014-Oct-21 02:33N 26°08' W 080°04'3 3.5
2014-Oct-21 01:34N 26°12' W 080°04'0 0.4
2014-Oct-21 00:34N 26°12' W 080°04'1 0.9
2014-Oct-20 23:34N 26°12' W 080°04'1 1.0
2014-Oct-20 22:34N 26°11' W 080°03'0 0.2
2014-Oct-20 21:33N 26°11' W 080°03'1 1.1
2014-Oct-20 20:34N 26°10' W 080°02'1 1.5
2014-Oct-20 19:34N 26°08' W 080°01'1 1.4
2014-Oct-20 18:33N 26°07' W 080°01'1 1.3
2014-Oct-20 17:33N 26°06' W 080°00'1 1.3
2014-Oct-20 16:33N 26°05' W 079°60'2 1.5
2014-Oct-20 15:33N 26°03' W 079°59'2 1.6
2014-Oct-20 14:33N 26°02' W 079°59'2 1.6
2014-Oct-20 13:33N 26°00' W 079°58'2 1.6
2014-Oct-20 12:33N 25°59' W 079°58'2 1.6
2014-Oct-20 11:34N 25°57' W 079°57'2 1.7
2014-Oct-20 10:33N 25°55' W 079°57'2 2.0
2014-Oct-20 09:33N 25°53' W 079°57'4 2.1
2014-Oct-20 07:34N 25°49' W 079°56'2 2.1
2014-Oct-20 06:34N 25°47' W 079°56'2 2.3
2014-Oct-20 05:33N 25°45' W 079°55'2 2.4
2014-Oct-20 04:33N 25°43' W 079°55'3 2.7
2014-Oct-20 03:28N 25°40' W 079°54'9 0.2
2014-Oct-18 13:12N 25°33' W 080°02'914.5
2014-Oct-18 12:33N 25°43' W 080°03'8 7.7
2014-Oct-18 11:32N 25°46' W 080°10'0 0.0
2014-Oct-18 10:32N 25°46' W 080°10'0 0.0
2014-Oct-18 09:29N 25°46' W 080°10'0 0.0
2014-Oct-18 08:32N 25°46' W 080°10'0 0.0
2014-Oct-18 07:32N 25°46' W 080°10'0 0.0
2014-Oct-18 06:32N 25°46' W 080°10'0 0.0
2014-Oct-18 05:32N 25°46' W 080°10'0 0.0
2014-Oct-18 04:32N 25°46' W 080°10'0 0.0
2014-Oct-18 03:23N 25°46' W 080°10'0 0.0
2014-Oct-18 02:23N 25°46' W 080°10'0 0.0
2014-Oct-18 01:26N 25°46' W 080°10'0 0.0
2014-Oct-18 00:26N 25°46' W 080°10'0 0.0
2014-Oct-17 23:23N 25°46' W 080°10'0 0.0
2014-Oct-17 22:26N 25°46' W 080°10'0 0.0
2014-Oct-17 21:29N 25°46' W 080°10'0 0.0
2014-Oct-17 20:29N 25°46' W 080°10'0 0.0
2014-Oct-17 19:32N 25°46' W 080°10'0 0.0
2014-Oct-17 18:32N 25°46' W 080°10'0 0.0
2014-Oct-17 17:32N 25°46' W 080°10'0 0.0
2014-Oct-17 16:32N 25°46' W 080°10'0 0.0
2014-Oct-17 15:32N 25°46' W 080°10'0 0.0
2014-Oct-17 14:32N 25°46' W 080°10'0 0.0
2014-Oct-17 13:23N 25°46' W 080°10'0 0.0
2014-Oct-17 12:05N 25°46' W 080°10'0 0.0
2014-Oct-17 11:26N 25°46' W 080°10'2 2.1
2014-Oct-17 10:32N 25°46' W 080°08'  
Track history (hours):
 
Tides and Currents Weather Stations Pressure Air Temp Water Temp Dewpoint Dewpoint Depression Visibility Wind Speed Wind Dir Waves Ship Positions

Marchaser

Last reported at 2014-Oct-22 06:15 UTC. Time now 2014-Oct-23 10:16 UTC.
Position N 25°32' W 080°02'.

Length 134 m; draft 7.5 m.

Type: Cargo ship. MMSI: 304617000.

Date/timePositionNaut miles runAvg speedWind from/ knotsBaromVisibWave heightAir tempDewpointWater temp
2014-Oct-22 06:15N 25°32' W 080°02'913.6
2014-Oct-22 05:33N 25°41' W 080°01'1414.3
2014-Oct-22 04:33N 25°55' W 080°01'1210.9
2014-Oct-22 03:26N 26°07' W 080°04'0 0.1
2014-Oct-22 02:26N 26°08' W 080°04'0 0.0
2014-Oct-22 01:29N 26°08' W 080°04'0 0.1
2014-Oct-22 00:29N 26°08' W 080°04'0 0.1
2014-Oct-21 23:29N 26°08' W 080°04'0 0.0
2014-Oct-21 22:29N 26°08' W 080°04'0 0.0
2014-Oct-21 21:32N 26°08' W 080°04'0 0.0
2014-Oct-21 20:32N 26°08' W 080°04'0 0.0
2014-Oct-21 19:32N 26°08' W 080°04'0 0.1
2014-Oct-21 18:32N 26°08' W 080°04'0 0.1
2014-Oct-21 17:32N 26°07' W 080°04'0 0.0
2014-Oct-21 16:32N 26°08' W 080°04'0 0.1
2014-Oct-21 15:23N 26°07' W 080°04'0 0.0
2014-Oct-21 14:23N 26°07' W 080°04'0 0.0
2014-Oct-21 13:26N 26°07' W 080°04'0 0.0
2014-Oct-21 12:26N 26°07' W 080°04'0 0.0
2014-Oct-21 11:29N 26°07' W 080°04'0 0.1
2014-Oct-21 10:29N 26°07' W 080°04'0 0.1
2014-Oct-21 09:29N 26°07' W 080°04'0 0.1
2014-Oct-21 08:32N 26°07' W 080°04'0 0.0
2014-Oct-21 07:32N 26°07' W 080°04'0 0.1
2014-Oct-21 06:32N 26°08' W 080°04'0 0.0
2014-Oct-21 05:32N 26°08' W 080°04'0 0.0
2014-Oct-21 04:32N 26°08' W 080°04'0 0.0
2014-Oct-21 03:32N 26°08' W 080°04'1 1.0
2014-Oct-21 02:33N 26°08' W 080°04'3 3.5
2014-Oct-21 01:34N 26°12' W 080°04'0 0.4
2014-Oct-21 00:34N 26°12' W 080°04'1 0.9
2014-Oct-20 23:34N 26°12' W 080°04'1 1.0
2014-Oct-20 22:34N 26°11' W 080°03'0 0.2
2014-Oct-20 21:33N 26°11' W 080°03'1 1.1
2014-Oct-20 20:34N 26°10' W 080°02'1 1.5
2014-Oct-20 19:34N 26°08' W 080°01'1 1.4
2014-Oct-20 18:33N 26°07' W 080°01'1 1.3
2014-Oct-20 17:33N 26°06' W 080°00'1 1.3
2014-Oct-20 16:33N 26°05' W 079°60'2 1.5
2014-Oct-20 15:33N 26°03' W 079°59'2 1.6
2014-Oct-20 14:33N 26°02' W 079°59'2 1.6
2014-Oct-20 13:33N 26°00' W 079°58'2 1.6
2014-Oct-20 12:33N 25°59' W 079°58'2 1.6
2014-Oct-20 11:34N 25°57' W 079°57'2 1.7
2014-Oct-20 10:33N 25°55' W 079°57'2 2.0
2014-Oct-20 09:33N 25°53' W 079°57'4 2.1
2014-Oct-20 07:34N 25°49' W 079°56'2 2.1
2014-Oct-20 06:34N 25°47' W 079°56'2 2.3
2014-Oct-20 05:33N 25°45' W 079°55'2 2.4
2014-Oct-20 04:33N 25°43' W 079°55'3 2.7
2014-Oct-20 03:28N 25°40' W 079°54'9 0.2
2014-Oct-18 13:12N 25°33' W 080°02'914.5
2014-Oct-18 12:33N 25°43' W 080°03'8 7.7
2014-Oct-18 11:32N 25°46' W 080°10'0 0.0
2014-Oct-18 10:32N 25°46' W 080°10'0 0.0
2014-Oct-18 09:29N 25°46' W 080°10'0 0.0
2014-Oct-18 08:32N 25°46' W 080°10'0 0.0
2014-Oct-18 07:32N 25°46' W 080°10'0 0.0
2014-Oct-18 06:32N 25°46' W 080°10'0 0.0
2014-Oct-18 05:32N 25°46' W 080°10'0 0.0
2014-Oct-18 04:32N 25°46' W 080°10'0 0.0
2014-Oct-18 03:23N 25°46' W 080°10'0 0.0
2014-Oct-18 02:23N 25°46' W 080°10'0 0.0
2014-Oct-18 01:26N 25°46' W 080°10'0 0.0
2014-Oct-18 00:26N 25°46' W 080°10'0 0.0
2014-Oct-17 23:23N 25°46' W 080°10'0 0.0
2014-Oct-17 22:26N 25°46' W 080°10'0 0.0
2014-Oct-17 21:29N 25°46' W 080°10'0 0.0
2014-Oct-17 20:29N 25°46' W 080°10'0 0.0
2014-Oct-17 19:32N 25°46' W 080°10'0 0.0
2014-Oct-17 18:32N 25°46' W 080°10'0 0.0
2014-Oct-17 17:32N 25°46' W 080°10'0 0.0
2014-Oct-17 16:32N 25°46' W 080°10'0 0.0
2014-Oct-17 15:32N 25°46' W 080°10'0 0.0
2014-Oct-17 14:32N 25°46' W 080°10'0 0.0
2014-Oct-17 13:23N 25°46' W 080°10'0 0.0
2014-Oct-17 12:05N 25°46' W 080°10'0 0.0
2014-Oct-17 11:26N 25°46' W 080°10'2 2.1
2014-Oct-17 10:32N 25°46' W 080°08'  

Dump ship's entire track history